createdAt,value
2024-01-12T00:00:17.960Z,100973.56
2024-01-12T00:03:20.330Z,100969.59
2024-01-12T00:06:22.832Z,100961.88
2024-01-12T00:09:25.300Z,100955.13
2024-01-12T00:12:27.656Z,100966.78
2024-01-12T00:15:30.079Z,100965.94
2024-01-12T00:18:32.616Z,100971.50
2024-01-12T00:21:35.088Z,100973.28
2024-01-12T00:24:37.465Z,100987.22
2024-01-12T00:27:39.937Z,100972.22
2024-01-12T00:30:42.790Z,100963.53
2024-01-12T00:33:45.413Z,100958.31
2024-01-12T00:36:49.324Z,100969.81
2024-01-12T00:39:51.734Z,100961.47
2024-01-12T00:42:54.148Z,100962.03
2024-01-12T00:45:56.621Z,100959.69
2024-01-12T00:48:59.423Z,100967.22
2024-01-12T00:52:02.141Z,100956.56
2024-01-12T00:55:04.981Z,100961.47
2024-01-12T00:58:07.369Z,100960.03
2024-01-12T01:01:10.918Z,100966.72
2024-01-12T01:04:13.587Z,100974.47
2024-01-12T01:07:16.123Z,100978.47
2024-01-12T01:10:18.517Z,100971.50
2024-01-12T01:13:21.003Z,100980.22
2024-01-12T01:16:25.072Z,100982.00
2024-01-12T01:19:27.620Z,100980.59
2024-01-12T01:22:32.896Z,100981.44
2024-01-12T01:25:37.103Z,100978.53
2024-01-12T01:28:39.583Z,100972.28
2024-01-12T01:31:41.998Z,100985.59
2024-01-12T01:34:44.938Z,100993.00
2024-01-12T01:37:47.455Z,100990.94
2024-01-12T01:40:49.928Z,100998.91
2024-01-12T01:43:52.490Z,100987.34
2024-01-12T01:47:00.204Z,100990.34
2024-01-12T01:50:03.127Z,100987.34
2024-01-12T01:53:06.220Z,100989.84
2024-01-12T01:56:10.830Z,100983.41
2024-01-12T01:59:13.875Z,100982.34
2024-01-12T02:02:16.738Z,100987.91
2024-01-12T02:05:19.958Z,100985.72
2024-01-12T02:08:22.591Z,100990.56
2024-01-12T02:11:25.042Z,100986.88
2024-01-12T02:14:27.531Z,100981.44
2024-01-12T02:17:30.059Z,100993.00
2024-01-12T02:20:32.561Z,100986.59
2024-01-12T02:23:35.092Z,100988.00
2024-01-12T02:26:37.664Z,100989.31
2024-01-12T02:29:40.296Z,100985.59
2024-01-12T02:32:42.748Z,100997.25
2024-01-12T02:35:45.443Z,100986.16
2024-01-12T02:38:51.396Z,100993.00
2024-01-12T02:41:58.522Z,101002.22
2024-01-12T02:45:01.054Z,101002.03
2024-01-12T02:48:04.112Z,100999.13
2024-01-12T02:51:07.719Z,100992.88
2024-01-12T02:54:10.228Z,100997.53
2024-01-12T02:57:13.709Z,101008.06
2024-01-12T03:00:16.520Z,100998.88
2024-01-12T03:03:20.010Z,100996.75
2024-01-12T03:06:22.714Z,100995.78
2024-01-12T03:09:25.153Z,100994.72
2024-01-12T03:12:27.585Z,101009.69
2024-01-12T03:15:30.535Z,101001.41
2024-01-12T03:18:33.519Z,101010.63
2024-01-12T03:21:36.108Z,101008.84
2024-01-12T03:24:38.543Z,101008.56
2024-01-12T03:27:41.019Z,101011.56
2024-01-12T03:30:43.467Z,100999.28
2024-01-12T03:33:46.082Z,101008.03
2024-01-12T03:36:48.655Z,100992.91
2024-01-12T03:39:51.336Z,101000.09
2024-01-12T03:42:53.772Z,100997.84
2024-01-12T03:45:56.167Z,100993.31
2024-01-12T03:48:58.686Z,101003.03
2024-01-12T03:52:14.571Z,100997.53
2024-01-12T03:55:18.813Z,100995.75
2024-01-12T03:58:21.222Z,101000.78
2024-01-12T04:01:24.306Z,100996.84
2024-01-12T04:04:26.908Z,100993.75
2024-01-12T04:07:29.312Z,100994.16
2024-01-12T04:10:31.895Z,100993.59
2024-01-12T04:13:34.323Z,100988.16
2024-01-12T04:16:36.829Z,100986.34
2024-01-12T04:19:39.339Z,100986.56
2024-01-12T04:22:41.860Z,100982.03
2024-01-12T04:25:44.349Z,100977.47
2024-01-12T04:28:47.064Z,100981.16
2024-01-12T04:31:49.617Z,100981.03
2024-01-12T04:34:52.095Z,100980.88
2024-01-12T04:37:54.558Z,100984.25
2024-01-12T04:40:56.982Z,100977.28
2024-01-12T04:43:59.569Z,100980.34
2024-01-12T04:47:01.958Z,100992.88
2024-01-12T04:50:04.668Z,100992.78
2024-01-12T04:53:07.606Z,100994.75
2024-01-12T04:56:10.029Z,100993.56
2024-01-12T04:59:12.474Z,100987.69
2024-01-12T05:02:15.006Z,100995.84
2024-01-12T05:05:17.497Z,100999.00
2024-01-12T05:08:20.016Z,101008.75
2024-01-12T05:11:23.504Z,101020.63
2024-01-12T05:14:27.440Z,101020.28
2024-01-12T05:17:29.927Z,101022.63
2024-01-12T05:20:32.394Z,101030.78
2024-01-12T05:23:34.989Z,101039.53
2024-01-12T05:26:37.823Z,101041.81
2024-01-12T05:29:40.315Z,101039.13
2024-01-12T05:32:42.897Z,101046.91
2024-01-12T05:35:45.699Z,101047.47
2024-01-12T05:38:48.206Z,101045.84
2024-01-12T05:41:50.779Z,101058.00
2024-01-12T05:44:53.241Z,101058.16
2024-01-12T05:47:56.043Z,101057.34
2024-01-12T05:50:58.580Z,101058.41
2024-01-12T05:54:01.101Z,101065.13
2024-01-12T05:57:03.969Z,101064.66
2024-01-12T06:00:09.174Z,101070.13
2024-01-12T06:03:11.740Z,101070.59
2024-01-12T06:06:14.370Z,101073.94
2024-01-12T06:09:16.916Z,101089.94
2024-01-12T06:12:19.333Z,101093.53
2024-01-12T06:15:21.961Z,101097.22
2024-01-12T06:18:24.612Z,101100.84
2024-01-12T06:21:27.353Z,101103.63
2024-01-12T06:24:29.821Z,101102.50
2024-01-12T06:27:32.234Z,101092.81
2024-01-12T06:30:34.670Z,101096.34
2024-01-12T06:33:37.103Z,101102.91
2024-01-12T06:36:45.480Z,101106.28
2024-01-12T06:39:48.040Z,101122.31
2024-01-12T06:42:50.472Z,101119.44
2024-01-12T06:45:52.856Z,101121.88
2024-01-12T06:48:55.286Z,101131.63
2024-01-12T06:51:57.761Z,101125.84
2024-01-12T06:55:00.606Z,101128.72
2024-01-12T06:58:03.163Z,101130.81
2024-01-12T07:01:05.645Z,101132.06
2024-01-12T07:04:08.654Z,101133.50
2024-01-12T07:07:12.061Z,101144.78
2024-01-12T07:10:14.588Z,101147.91
2024-01-12T07:13:17.005Z,101141.06
2024-01-12T07:16:19.378Z,101147.53
2024-01-12T07:19:21.968Z,101155.78
2024-01-12T07:22:24.425Z,101151.41
2024-01-12T07:25:26.854Z,101152.75
2024-01-12T07:28:29.376Z,101137.97
2024-01-12T07:31:32.412Z,101139.00
2024-01-12T07:34:34.907Z,101126.19
2024-01-12T07:37:38.072Z,101123.91
2024-01-12T07:40:40.540Z,101131.16
2024-01-12T07:43:43.009Z,101134.00
2024-01-12T07:46:45.431Z,101131.53
2024-01-12T07:49:49.020Z,101134.59
2024-01-12T07:52:51.876Z,101132.66
2024-01-12T07:55:54.847Z,101142.13
2024-01-12T07:58:59.026Z,101139.72
2024-01-12T08:02:02.590Z,101147.44
2024-01-12T08:05:09.570Z,101148.63
2024-01-12T08:08:12.323Z,101147.88
2024-01-12T08:11:26.685Z,101153.56
2024-01-12T08:14:34.452Z,101141.16
2024-01-12T08:17:40.717Z,101150.56
2024-01-12T08:20:43.745Z,101155.91
2024-01-12T08:23:46.223Z,101161.03
2024-01-12T08:26:49.155Z,101157.22
2024-01-12T08:29:51.814Z,101155.44
2024-01-12T08:32:54.392Z,101168.34
2024-01-12T08:35:56.899Z,101179.13
2024-01-12T08:38:59.355Z,101179.13
2024-01-12T08:42:01.898Z,101184.22
2024-01-12T08:45:05.613Z,101173.72
2024-01-12T08:48:08.271Z,101180.75
2024-01-12T08:51:11.526Z,101175.09
2024-01-12T08:54:14.222Z,101178.59
2024-01-12T08:57:16.788Z,101182.06
2024-01-12T09:00:19.417Z,101190.91
2024-01-12T09:03:21.910Z,101190.34
2024-01-12T09:06:25.249Z,101183.19
2024-01-12T09:09:27.933Z,101187.03
2024-01-12T09:12:30.473Z,101195.34
2024-01-12T09:15:36.332Z,101195.34
2024-01-12T09:18:39.117Z,101211.09
2024-01-12T09:21:42.251Z,101201.19
2024-01-12T09:24:44.720Z,101209.88
2024-01-12T09:27:47.272Z,101206.78
2024-01-12T09:30:49.824Z,101207.44
2024-01-12T09:33:54.302Z,101216.66
2024-01-12T09:36:56.862Z,101221.66
2024-01-12T09:39:59.257Z,101219.72
2024-01-12T09:43:02.334Z,101208.09
2024-01-12T09:46:09.496Z,101196.69
2024-01-12T09:49:12.006Z,101204.19
2024-01-12T09:52:14.626Z,101214.56
2024-01-12T09:55:17.047Z,101211.31
2024-01-12T09:58:22.697Z,101208.75
2024-01-12T10:01:25.377Z,101216.19
2024-01-12T10:04:28.337Z,101223.06
2024-01-12T10:07:31.077Z,101206.72
2024-01-12T10:10:33.520Z,101212.56
2024-01-12T10:13:35.994Z,101202.81
2024-01-12T10:16:40.555Z,101209.06
2024-01-12T10:19:43.781Z,101209.44
2024-01-12T10:22:46.343Z,101217.59
2024-01-12T10:26:10.692Z,101207.84
2024-01-12T10:29:15.014Z,101211.34
2024-01-12T10:32:21.018Z,101215.69
2024-01-12T10:35:23.735Z,101205.13
2024-01-12T10:38:30.158Z,101215.69
2024-01-12T10:41:34.454Z,101218.03
2024-01-12T10:44:40.375Z,101220.09
2024-01-12T10:47:48.591Z,101213.84
2024-01-12T10:51:00.928Z,101223.25
2024-01-12T10:54:14.241Z,101223.25
2024-01-12T10:57:17.743Z,101216.28
2024-01-12T11:00:21.306Z,101215.75
2024-01-12T11:03:25.087Z,101214.91
2024-01-12T11:06:29.438Z,101209.03
2024-01-12T11:09:32.012Z,101205.47
2024-01-12T11:12:39.120Z,101208.44
2024-01-12T11:15:42.141Z,101202.75
2024-01-12T11:18:44.765Z,101203.50
2024-01-12T11:21:47.252Z,101198.31
2024-01-12T11:24:49.805Z,101200.31
2024-01-12T11:27:53.201Z,101191.63
2024-01-12T11:30:55.792Z,101186.13
2024-01-12T11:34:00.633Z,101183.09
2024-01-12T11:37:03.920Z,101171.00
2024-01-12T11:40:11.987Z,101168.03
2024-01-12T11:43:20.519Z,101162.84
2024-01-12T11:46:25.232Z,101164.69
2024-01-12T11:49:27.752Z,101160.69
2024-01-12T11:52:30.250Z,101159.03
2024-01-12T11:55:33.869Z,101147.72
2024-01-12T11:58:38.344Z,101150.47
2024-01-12T12:01:40.810Z,101149.78
2024-01-12T12:04:43.786Z,101142.88
2024-01-12T12:07:47.400Z,101146.53
2024-01-12T12:10:49.828Z,101143.63
2024-01-12T12:13:54.428Z,101132.91
2024-01-12T12:16:56.826Z,101125.16
2024-01-12T12:19:59.457Z,101135.84
2024-01-12T12:23:01.972Z,101127.91
2024-01-12T12:26:06.047Z,101128.38
2024-01-12T12:29:10.526Z,101120.50
2024-01-12T12:32:13.911Z,101119.69
2024-01-12T12:35:20.877Z,101118.00
2024-01-12T12:38:23.698Z,101119.69
2024-01-12T12:41:26.214Z,101121.50
2024-01-12T12:44:28.740Z,101126.88
2024-01-12T12:47:32.083Z,101116.34
2024-01-12T12:50:34.879Z,101116.84
2024-01-12T12:53:37.328Z,101122.81
2024-01-12T12:56:41.056Z,101127.34
2024-01-12T12:59:44.911Z,101128.00
2024-01-12T13:02:47.452Z,101123.41
2024-01-12T13:05:49.943Z,101110.00
2024-01-12T13:08:52.479Z,101115.09
2024-01-12T13:11:55.215Z,101114.25
2024-01-12T13:14:57.702Z,101117.94
2024-01-12T13:18:00.506Z,101106.38
2024-01-12T13:21:03.702Z,101110.38
2024-01-12T13:24:06.547Z,101106.53
2024-01-12T13:27:09.164Z,101110.31
2024-01-12T13:30:12.281Z,101110.13
2024-01-12T13:33:16.256Z,101108.75
2024-01-12T13:36:19.556Z,101112.06
2024-01-12T13:39:22.586Z,101110.53
2024-01-12T13:42:25.388Z,101117.22
2024-01-12T13:45:27.947Z,101114.53
2024-01-12T13:48:31.195Z,101119.50
2024-01-12T13:51:34.993Z,101124.63
2024-01-12T13:54:37.528Z,101124.78
2024-01-12T13:57:39.948Z,101120.47
2024-01-12T14:00:42.363Z,101114.69
2024-01-12T14:03:47.880Z,101123.59
2024-01-12T14:06:50.555Z,101120.41
2024-01-12T14:09:53.288Z,101128.03
2024-01-12T14:12:55.779Z,101132.66
2024-01-12T14:15:59.089Z,101128.16
2024-01-12T14:19:01.690Z,101137.81
2024-01-12T14:22:04.423Z,101137.22
2024-01-12T14:25:07.596Z,101135.34
2024-01-12T14:28:20.343Z,101138.63
2024-01-12T14:31:31.253Z,101137.22
2024-01-12T14:34:33.912Z,101142.63
2024-01-12T14:37:36.459Z,101147.22
2024-01-12T14:40:38.814Z,101147.50
2024-01-12T14:43:41.216Z,101153.44
2024-01-12T14:46:43.712Z,101143.38
2024-01-12T14:49:47.048Z,101134.38
2024-01-12T14:52:49.976Z,101144.97
2024-01-12T14:55:52.510Z,101143.31
2024-01-12T14:58:55.282Z,101146.41
2024-01-12T15:01:57.750Z,101150.53
2024-01-12T15:05:00.282Z,101153.53
2024-01-12T15:08:04.613Z,101144.88
2024-01-12T15:11:07.511Z,101157.38
2024-01-12T15:14:10.349Z,101154.72
2024-01-12T15:17:12.989Z,101157.97
2024-01-12T15:20:16.006Z,101162.38
2024-01-12T15:23:18.521Z,101152.72
2024-01-12T15:26:20.914Z,101163.66
2024-01-12T15:29:23.399Z,101172.56
2024-01-12T15:32:25.945Z,101167.22
2024-01-12T15:35:29.446Z,101176.56
2024-01-12T15:38:32.255Z,101187.34
2024-01-12T15:41:34.763Z,101191.94
2024-01-12T15:44:37.227Z,101188.41
2024-01-12T15:47:39.895Z,101182.16
2024-01-12T15:50:43.120Z,101189.69
2024-01-12T15:53:45.572Z,101190.50
2024-01-12T15:56:48.156Z,101178.09
2024-01-12T15:59:50.791Z,101190.25
2024-01-12T16:02:53.302Z,101185.06
2024-01-12T16:05:56.180Z,101170.88
2024-01-12T16:08:58.759Z,101167.91
2024-01-12T16:12:01.299Z,101155.00
2024-01-12T16:15:07.496Z,101164.41
2024-01-12T16:18:10.214Z,101162.13
2024-01-12T16:21:31.614Z,101160.63
2024-01-12T16:24:34.086Z,101166.00
2024-01-12T16:27:36.501Z,101173.97
2024-01-12T16:30:39.094Z,101171.91
2024-01-12T16:33:41.685Z,101165.31
2024-01-12T16:36:44.166Z,101168.47
2024-01-12T16:39:46.610Z,101172.03
2024-01-12T16:42:49.000Z,101150.22
2024-01-12T16:45:51.414Z,101153.69
2024-01-12T16:48:53.919Z,101155.78
2024-01-12T16:51:56.363Z,101152.22
2024-01-12T16:55:04.044Z,101157.09
2024-01-12T16:58:06.693Z,101165.78
2024-01-12T17:01:09.213Z,101163.63
2024-01-12T17:04:11.777Z,101159.22
2024-01-12T17:07:14.201Z,101149.34
2024-01-12T17:10:16.803Z,101144.13
2024-01-12T17:13:19.238Z,101150.63
2024-01-12T17:16:35.083Z,101148.06
2024-01-12T17:19:37.627Z,101144.84
2024-01-12T17:22:40.123Z,101144.59
2024-01-12T17:25:42.546Z,101146.78
2024-01-12T17:28:44.924Z,101140.41
2024-01-12T17:31:51.528Z,101140.88
2024-01-12T17:34:54.270Z,101141.59
2024-01-12T17:37:57.588Z,101132.59
2024-01-12T17:41:00.530Z,101122.97
2024-01-12T17:44:03.246Z,101141.38
2024-01-12T17:47:05.697Z,101137.41
2024-01-12T17:50:09.252Z,101137.19
2024-01-12T17:53:11.688Z,101141.94
2024-01-12T17:56:14.465Z,101145.00
2024-01-12T17:59:16.907Z,101156.47
2024-01-12T18:02:19.857Z,101147.06
2024-01-12T18:05:22.665Z,101138.91
2024-01-12T18:08:25.443Z,101142.88
2024-01-12T18:11:27.991Z,101149.69
2024-01-12T18:14:30.615Z,101149.31
2024-01-12T18:17:33.334Z,101156.59
2024-01-12T18:20:35.846Z,101147.28
2024-01-12T18:23:38.258Z,101155.25
2024-01-12T18:26:40.666Z,101147.16
2024-01-12T18:29:43.857Z,101143.81
2024-01-12T18:32:46.873Z,101141.31
2024-01-12T18:35:50.194Z,101138.59
2024-01-12T18:38:53.097Z,101138.69
2024-01-12T18:41:55.843Z,101137.69
2024-01-12T18:44:58.752Z,101137.16
2024-01-12T18:48:01.737Z,101125.38
2024-01-12T18:51:04.816Z,101110.00
2024-01-12T18:54:10.296Z,101100.72
2024-01-12T18:57:13.684Z,101106.47
2024-01-12T19:00:16.732Z,101089.72
2024-01-12T19:03:19.478Z,101084.78
2024-01-12T19:06:22.141Z,101081.06
2024-01-12T19:09:24.658Z,101075.97
2024-01-12T19:12:27.364Z,101067.75
2024-01-12T19:15:30.126Z,101062.88
2024-01-12T19:18:32.749Z,101064.63
2024-01-12T19:21:35.332Z,101072.72
2024-01-12T19:24:42.667Z,101067.59
2024-01-12T19:27:45.121Z,101084.44
2024-01-12T19:30:47.524Z,101086.75
2024-01-12T19:33:53.881Z,101093.81
2024-01-12T19:36:56.419Z,101095.84
2024-01-12T19:39:59.816Z,101087.63
2024-01-12T19:43:02.261Z,101091.38
2024-01-12T19:46:05.285Z,101103.81
2024-01-12T19:49:07.867Z,101096.75
2024-01-12T19:52:10.568Z,101092.19
2024-01-12T19:55:13.884Z,101088.94
2024-01-12T19:58:17.328Z,101092.03
2024-01-12T20:01:19.999Z,101085.91
2024-01-12T20:04:29.737Z,101097.19
2024-01-12T20:07:40.245Z,101091.53
2024-01-12T20:10:43.005Z,101087.53
2024-01-12T20:13:45.933Z,101091.94
2024-01-12T20:16:48.771Z,101096.44
2024-01-12T20:19:51.996Z,101108.53
2024-01-12T20:22:54.666Z,101110.19
2024-01-12T20:25:57.092Z,101113.66
2024-01-12T20:28:59.787Z,101106.00
2024-01-12T20:32:02.752Z,101097.22
2024-01-12T20:35:05.520Z,101100.59
2024-01-12T20:38:07.972Z,101093.19
2024-01-12T20:41:10.644Z,101089.34
2024-01-12T20:44:13.930Z,101081.94
2024-01-12T20:47:16.485Z,101079.06
2024-01-12T20:50:18.948Z,101055.31
2024-01-12T20:53:22.375Z,101056.97
2024-01-12T20:56:24.910Z,101064.94
2024-01-12T20:59:29.744Z,101061.63
2024-01-12T21:02:33.865Z,101063.63
2024-01-12T21:05:36.659Z,101060.59
2024-01-12T21:08:39.278Z,101046.00
2024-01-12T21:11:42.458Z,101040.09
2024-01-12T21:14:45.021Z,101036.13
2024-01-12T21:17:48.777Z,101038.38
2024-01-12T21:20:51.756Z,101038.59
2024-01-12T21:23:54.528Z,101035.41
2024-01-12T21:26:57.070Z,101042.75
2024-01-12T21:30:00.674Z,101043.81
2024-01-12T21:33:03.500Z,101042.31
2024-01-12T21:36:06.365Z,101044.84
2024-01-12T21:39:10.209Z,101041.38
2024-01-12T21:42:13.463Z,101041.44
2024-01-12T21:45:16.651Z,101040.63
2024-01-12T21:48:19.250Z,101028.63
2024-01-12T21:51:21.831Z,101032.19
2024-01-12T21:54:24.257Z,101037.94
2024-01-12T21:57:27.241Z,101021.38
2024-01-12T22:00:29.628Z,101027.47
2024-01-12T22:03:32.213Z,101014.78
2024-01-12T22:06:34.728Z,101023.22
2024-01-12T22:09:37.238Z,101021.72
2024-01-12T22:12:39.674Z,101006.88
2024-01-12T22:15:42.135Z,101019.53
2024-01-12T22:18:44.899Z,101005.97
2024-01-12T22:21:47.473Z,101007.81
2024-01-12T22:24:49.849Z,101004.34
2024-01-12T22:27:52.281Z,101002.63
2024-01-12T22:30:54.694Z,100991.38
2024-01-12T22:33:57.258Z,100986.22
2024-01-12T22:36:59.802Z,100986.09
2024-01-12T22:40:02.608Z,100993.28
2024-01-12T22:43:05.400Z,100985.56
2024-01-12T22:46:07.951Z,100970.03
2024-01-12T22:49:12.181Z,100993.72
2024-01-12T22:52:14.949Z,100994.00
2024-01-12T22:55:17.419Z,100983.84
2024-01-12T22:58:20.505Z,100979.78
2024-01-12T23:01:22.889Z,100972.44
2024-01-12T23:04:25.325Z,100974.97
2024-01-12T23:07:27.782Z,100968.53
2024-01-12T23:10:30.207Z,100963.78
2024-01-12T23:13:32.601Z,100962.56
2024-01-12T23:16:35.025Z,100967.00
2024-01-12T23:19:37.499Z,100972.53
2024-01-12T23:22:43.332Z,100964.72
2024-01-12T23:25:46.039Z,100959.03
2024-01-12T23:28:48.625Z,100960.50
2024-01-12T23:31:51.181Z,100955.88
2024-01-12T23:34:53.804Z,100956.88
2024-01-12T23:37:56.343Z,100950.00
2024-01-12T23:40:58.730Z,100942.09
2024-01-12T23:44:02.099Z,100940.03
2024-01-12T23:47:04.762Z,100941.41
2024-01-12T23:50:07.668Z,100942.22
2024-01-12T23:53:10.158Z,100928.78
2024-01-12T23:56:12.536Z,100928.16
2024-01-12T23:59:14.989Z,100930.03
